Time;durP1;ratioP1;P1;durP2;ratioP2;P2;SDS_P1;SDS_P2;PMS_P1;PMS_P2;Temp;Humidity;BMP_temperature;BMP_pressure;BME280_temperature;BME280_humidity;BME280_pressure;Samples;Min_cycle;Max_cycle;Signal;HPM_P1;HPM_P2
2022/10/18 00:01:23;;;;;;;20.55;11.02;;;;;;;11.93;100.00;102337.50;5053579;28;20037;-59
2022/10/18 00:03:49;;;;;;;18.98;11.35;;;;;;;12.22;100.00;102390.75;5053747;28;20087;-58
2022/10/18 00:06:14;;;;;;;23.50;11.60;;;;;;;12.15;100.00;102397.00;5048940;28;20029;-50
2022/10/18 00:08:39;;;;;;;16.73;12.05;;;;;;;12.11;100.00;102397.94;5052777;28;20041;-55
2022/10/18 00:11:05;;;;;;;18.45;11.77;;;;;;;11.80;100.00;102369.31;5053511;28;20423;-58
2022/10/18 00:13:30;;;;;;;18.95;11.38;;;;;;;12.01;100.00;102399.84;5049298;28;20554;-55
2022/10/18 00:15:59;;;;;;;23.00;12.15;;;;;;;11.96;100.00;102396.41;5053120;28;20052;-54
2022/10/18 00:18:25;;;;;;;20.98;12.20;;;;;;;11.89;100.00;102393.84;5053354;28;20029;-55
2022/10/18 00:21:05;;;;;;;18.98;11.50;;;;;;;11.87;100.00;102404.44;5031589;28;20040;-55
2022/10/18 00:23:32;;;;;;;20.85;12.00;;;;;;;11.55;100.00;102343.25;5050232;28;20365;-58
2022/10/18 00:26:01;;;;;;;19.00;12.13;;;;;;;11.42;100.00;102331.97;5048527;28;20064;-57
2022/10/18 00:28:26;;;;;;;16.52;11.20;;;;;;;11.74;100.00;102402.81;5041728;28;20132;-55
2022/10/18 00:30:52;;;;;;;19.75;12.30;;;;;;;11.73;100.00;102407.22;5053253;28;20463;-54
2022/10/18 00:33:17;;;;;;;19.08;11.82;;;;;;;11.70;100.00;102412.53;5051954;28;20037;-52
2022/10/18 00:35:42;;;;;;;21.70;12.02;;;;;;;11.67;100.00;102414.31;5053021;28;20056;-55
2022/10/18 00:38:08;;;;;;;23.02;11.98;;;;;;;11.63;100.00;102415.25;5048179;28;20472;-51
2022/10/18 00:40:33;;;;;;;21.35;12.27;;;;;;;11.22;100.00;102352.44;5042032;28;20162;-55
2022/10/18 00:42:58;;;;;;;20.98;13.23;;;;;;;11.49;100.00;102398.72;5052807;28;20029;-58
2022/10/18 00:45:24;;;;;;;19.40;12.05;;;;;;;11.44;100.00;102398.75;5053090;28;20385;-58
2022/10/18 00:47:54;;;;;;;22.73;12.23;;;;;;;11.17;100.00;102365.69;5051133;28;20028;-56
2022/10/18 00:50:20;;;;;;;18.05;11.90;;;;;;;11.08;100.00;102356.97;5048109;28;20038;-58
2022/10/18 00:52:49;;;;;;;23.08;12.75;;;;;;;11.27;100.00;102393.66;5043628;28;20029;-57
2022/10/18 00:55:14;;;;;;;17.30;11.68;;;;;;;11.40;100.00;102415.50;5048255;28;20036;-54
2022/10/18 00:57:41;;;;;;;21.15;13.65;;;;;;;11.05;100.00;102354.38;5053116;28;20392;-59
2022/10/18 01:00:08;;;;;;;23.02;12.63;;;;;;;11.23;100.00;102396.38;5047956;28;20033;-58
2022/10/18 01:02:35;;;;;;;24.42;13.40;;;;;;;11.35;100.00;102424.34;5040623;28;20538;-54
2022/10/18 01:05:01;;;;;;;28.60;13.65;;;;;;;11.32;100.00;102420.00;5047888;28;20038;-57
2022/10/18 01:07:51;;;;;;;21.83;13.07;;;;;;;11.33;100.00;102424.34;5048845;28;20029;-55
2022/10/18 01:10:43;;;;;;;19.63;12.27;;;;;;;11.30;100.00;102435.81;5052312;28;20110;-57
2022/10/18 01:13:27;;;;;;;29.23;13.50;;;;;;;11.28;100.00;102434.09;5052358;28;20044;-57
2022/10/18 01:16:00;;;;;;;18.92;12.85;;;;;;;11.26;100.00;102438.50;5052692;28;20029;-56
2022/10/18 01:18:49;;;;;;;21.05;12.50;;;;;;;11.21;100.00;102430.63;5047253;28;20033;-55
2022/10/18 01:21:15;;;;;;;22.85;12.77;;;;;;;11.17;100.00;102436.84;5046760;28;20083;-58
2022/10/18 01:24:02;;;;;;;26.63;12.88;;;;;;;10.79;100.00;102366.94;5052219;28;20069;-56
2022/10/18 01:27:11;;;;;;;23.35;13.05;;;;;;;11.10;100.00;102437.75;5050722;28;20055;-55
2022/10/18 01:30:01;;;;;;;20.92;11.93;;;;;;;11.05;100.00;102429.03;5004138;28;20104;-53
2022/10/18 01:32:36;;;;;;;20.52;11.10;;;;;;;10.66;100.00;102367.03;5051367;28;20115;-58
2022/10/18 01:35:05;;;;;;;27.02;12.50;;;;;;;10.97;100.00;102422.09;5047413;28;20405;-54
2022/10/18 01:37:31;;;;;;;27.15;12.93;;;;;;;10.94;100.00;102427.38;5061742;28;20044;-54
2022/10/18 01:39:58;;;;;;;22.58;11.95;;;;;;;10.98;100.00;102429.09;5047247;28;20033;-51
2022/10/18 01:42:24;;;;;;;22.42;11.95;;;;;;;10.64;100.00;102381.09;5039745;28;20536;-60
2022/10/18 01:44:51;;;;;;;19.08;11.25;;;;;;;10.62;100.00;102377.63;5030585;28;20117;-54
2022/10/18 01:47:17;;;;;;;23.25;11.80;;;;;;;10.91;100.00;102430.03;5045579;28;20033;-56
2022/10/18 01:49:42;;;;;;;24.45;11.55;;;;;;;10.62;100.00;102386.38;5066994;28;20468;-58
2022/10/18 01:52:12;;;;;;;19.38;11.45;;;;;;;10.84;100.00;102430.97;5051947;28;20119;-57
2022/10/18 01:54:39;;;;;;;27.08;12.23;;;;;;;10.28;100.00;102339.25;5051963;28;20029;-57
2022/10/18 01:57:34;;;;;;;23.38;12.88;;;;;;;10.77;100.00;102434.56;5047756;28;20049;-58
2022/10/18 02:00:10;;;;;;;26.70;12.32;;;;;;;10.74;100.00;102438.06;5045962;28;20124;-58
2022/10/18 02:02:41;;;;;;;27.95;11.98;;;;;;;10.73;100.00;102441.59;5039990;28;20477;-57
2022/10/18 02:05:25;;;;;;;;;;;;;;;10.70;100.00;102445.13;5052246;28;20033;-54
2022/10/18 02:08:25;;;;;;;25.20;13.45;;;;;;;10.66;100.00;102438.13;5051517;28;19912;-58
2022/10/18 02:10:58;;;;;;;20.75;12.65;;;;;;;10.61;100.00;102437.31;5043976;28;20488;-56
2022/10/18 02:13:28;;;;;;;21.58;11.80;;;;;;;10.52;100.00;102432.09;5030015;28;20473;-54
2022/10/18 02:15:56;;;;;;;20.08;12.07;;;;;;;10.13;100.00;102375.31;5066430;28;20029;-58
2022/10/18 02:18:24;;;;;;;25.50;12.60;;;;;;;10.55;100.00;102449.63;5051374;28;20049;-55
2022/10/18 02:20:50;;;;;;;26.40;12.43;;;;;;;10.53;100.00;102449.66;5050216;28;20060;-59
2022/10/18 02:23:19;;;;;;;21.38;11.80;;;;;;;9.81;100.00;102326.38;5047079;28;20076;-54
2022/10/18 02:25:44;;;;;;;21.67;11.82;;;;;;;10.11;100.00;102384.06;5050598;28;20066;-54
2022/10/18 02:28:09;;;;;;;23.17;12.80;;;;;;;10.47;100.00;102465.50;5049907;28;20053;-56
2022/10/18 02:30:43;;;;;;;18.23;13.00;;;;;;;10.05;100.00;102386.75;5046859;28;20132;-56
2022/10/18 02:33:17;;;;;;;23.90;12.38;;;;;;;10.43;100.00;102460.22;5044262;28;20082;-57
2022/10/18 02:35:46;;;;;;;21.60;13.15;;;;;;;10.05;100.00;102389.38;5051509;28;20033;-58
2022/10/18 02:38:13;;;;;;;22.13;11.60;;;;;;;10.38;100.00;102452.38;5046897;28;20041;-58
2022/10/18 02:40:38;;;;;;;27.00;12.52;;;;;;;10.35;100.00;102456.78;5030113;28;20033;-56
2022/10/18 02:43:05;;;;;;;26.05;11.90;;;;;;;10.34;100.00;102462.91;5051216;28;20033;-55
2022/10/18 02:45:30;;;;;;;23.83;13.07;;;;;;;9.98;100.00;102401.66;5055039;28;20032;-57
2022/10/18 02:47:55;;;;;;;29.50;13.07;;;;;;;10.29;100.00;102460.31;5054867;28;20455;-57
2022/10/18 02:50:21;;;;;;;31.88;14.07;;;;;;;10.24;100.00;102458.59;5055045;28;20047;-55
2022/10/18 02:52:46;;;;;;;27.95;13.40;;;;;;;10.23;100.00;102443.69;5055070;28;20036;-54
2022/10/18 02:55:11;;;;;;;27.95;13.27;;;;;;;10.19;100.00;102448.09;5054875;28;20458;-56
2022/10/18 02:57:37;;;;;;;25.73;12.30;;;;;;;10.16;100.00;102446.34;5054794;28;20072;-57
2022/10/18 03:00:05;;;;;;;30.42;12.73;;;;;;;9.78;100.00;102379.84;5054757;28;20059;-57
2022/10/18 03:02:31;;;;;;;17.60;12.32;;;;;;;10.08;100.00;102441.97;5050403;28;20026;-56
2022/10/18 03:04:56;;;;;;;25.80;12.40;;;;;;;8.68;100.00;102215.63;5047319;28;20041;-58
2022/10/18 03:07:21;;;;;;;24.73;12.90;;;;;;;9.69;100.00;102386.94;5054744;28;20480;-59
2022/10/18 03:09:47;;;;;;;31.75;12.95;;;;;;;10.01;100.00;102450.78;5054438;28;20037;-57
2022/10/18 03:12:12;;;;;;;22.75;12.73;;;;;;;9.60;100.00;102383.44;5054383;28;20033;-56
2022/10/18 03:14:37;;;;;;;24.08;12.85;;;;;;;9.85;100.00;102428.94;5054646;28;20041;-56
2022/10/18 03:17:03;;;;;;;27.00;12.73;;;;;;;9.96;100.00;102453.44;5052937;28;20040;-58
2022/10/18 03:19:28;;;;;;;26.95;12.77;;;;;;;9.95;100.00;102471.88;5054330;28;20037;-59
2022/10/18 03:21:53;;;;;;;23.60;12.02;;;;;;;9.81;100.00;102448.22;5054307;28;20040;-57
2022/10/18 03:24:19;;;;;;;21.50;11.63;;;;;;;9.89;100.00;102451.72;5054680;28;20040;-57
2022/10/18 03:26:44;;;;;;;29.25;12.98;;;;;;;9.88;100.00;102446.44;5054295;28;20037;-58
2022/10/18 03:29:10;;;;;;;21.98;12.23;;;;;;;9.50;100.00;102386.13;5054489;28;20053;-58
2022/10/18 03:31:35;;;;;;;25.55;13.52;;;;;;;9.86;100.00;102456.13;5052873;28;20492;-56
2022/10/18 03:34:00;;;;;;;31.55;13.07;;;;;;;9.78;100.00;102450.88;5054246;28;20384;-56
2022/10/18 03:36:26;;;;;;;27.40;12.70;;;;;;;9.87;100.00;102463.97;5049588;28;20044;-54
2022/10/18 03:38:51;;;;;;;22.85;12.20;;;;;;;9.52;100.00;102421.16;5045862;28;20072;-56
2022/10/18 03:41:17;;;;;;;25.52;12.38;;;;;;;9.46;100.00;102408.91;5052685;28;20181;-57
2022/10/18 03:43:42;;;;;;;28.27;12.52;;;;;;;9.75;100.00;102465.81;5053863;28;20041;-55
2022/10/18 03:46:07;;;;;;;25.67;12.70;;;;;;;9.70;100.00;102468.44;5053664;28;20028;-56
2022/10/18 03:48:33;;;;;;;18.10;11.82;;;;;;;9.34;100.00;102398.41;5069548;28;20040;-55
2022/10/18 03:50:58;;;;;;;22.85;12.23;;;;;;;9.36;100.00;102398.44;5053911;28;20059;-56
2022/10/18 03:53:23;;;;;;;22.95;12.75;;;;;;;9.62;100.00;102459.69;5053879;28;20117;-56
2022/10/18 03:55:50;;;;;;;20.77;11.95;;;;;;;9.29;100.00;102391.44;5052923;28;20094;-56
2022/10/18 03:58:16;;;;;;;27.50;11.60;;;;;;;9.64;100.00;102457.94;5053545;28;20025;-55
2022/10/18 04:00:41;;;;;;;21.77;12.30;;;;;;;9.57;100.00;102459.69;5049099;28;20508;-54
2022/10/18 04:03:06;;;;;;;25.92;12.23;;;;;;;9.24;100.00;102398.47;5051874;28;20032;-58
2022/10/18 04:05:33;;;;;;;24.77;12.35;;;;;;;9.58;100.00;102463.19;5053662;28;20037;-57
2022/10/18 04:07:58;;;;;;;33.90;13.20;;;;;;;9.21;100.00;102403.72;5053448;28;20028;-58
2022/10/18 04:10:24;;;;;;;20.20;11.63;;;;;;;9.56;100.00;102459.72;5032183;28;20029;-54
2022/10/18 04:12:49;;;;;;;22.92;12.10;;;;;;;9.17;100.00;102396.72;5051775;28;20120;-60
2022/10/18 04:15:15;;;;;;;23.00;11.52;;;;;;;9.22;100.00;102414.25;5053274;28;20025;-56
2022/10/18 04:17:40;;;;;;;23.48;11.23;;;;;;;9.41;100.00;102446.59;5053415;28;20025;-61
2022/10/18 04:20:06;;;;;;;21.17;12.00;;;;;;;9.44;100.00;102455.34;5053486;28;20036;-58
2022/10/18 04:22:32;;;;;;;26.80;12.18;;;;;;;9.41;100.00;102462.38;5053267;28;20039;-54
2022/10/18 04:24:57;;;;;;;21.05;11.40;;;;;;;9.39;100.00;102453.63;5053062;28;20044;-56
2022/10/18 04:27:23;;;;;;;21.25;11.95;;;;;;;9.37;100.00;102453.59;5051845;28;20037;-59
2022/10/18 04:29:48;;;;;;;18.10;12.00;;;;;;;8.96;100.00;102400.28;5051535;28;20068;-57
2022/10/18 04:32:13;;;;;;;28.73;12.13;;;;;;;9.24;100.00;102462.41;5052903;28;20040;-59
2022/10/18 04:34:38;;;;;;;23.63;12.63;;;;;;;9.24;100.00;102466.78;5048575;28;20034;-55
2022/10/18 04:37:04;;;;;;;20.92;11.57;;;;;;;9.24;100.00;102462.41;5046688;28;20048;-55
2022/10/18 04:39:29;;;;;;;21.58;11.95;;;;;;;9.15;100.00;102446.66;5052906;28;20040;-56
2022/10/18 04:41:55;;;;;;;23.65;12.13;;;;;;;8.80;100.00;102409.91;5052962;28;20028;-57
2022/10/18 04:44:20;;;;;;;25.67;12.27;;;;;;;9.17;100.00;102480.78;5052843;28;20033;-56
2022/10/18 04:46:45;;;;;;;21.65;12.00;;;;;;;8.76;100.00;102423.00;5052584;28;20071;-58
2022/10/18 04:49:11;;;;;;;26.17;13.68;;;;;;;9.10;100.00;102482.56;5051404;28;20044;-59
2022/10/18 04:51:36;;;;;;;24.50;12.95;;;;;;;8.73;100.00;102415.13;5056884;28;20041;-57
2022/10/18 04:54:01;;;;;;;25.08;13.23;;;;;;;9.09;100.00;102482.53;5052740;28;20033;-55
2022/10/18 04:56:26;;;;;;;21.52;12.52;;;;;;;8.68;100.00;102420.38;5052929;28;20530;-54
2022/10/18 04:58:52;;;;;;;22.88;11.95;;;;;;;9.01;100.00;102499.19;5051508;28;20102;-58
2022/10/18 05:01:17;;;;;;;24.58;11.63;;;;;;;9.01;100.00;102493.94;5052366;28;20039;-57
2022/10/18 05:03:43;;;;;;;20.10;12.40;;;;;;;8.81;100.00;102453.66;5052534;28;20051;-56
2022/10/18 05:06:08;;;;;;;23.00;11.35;;;;;;;8.65;100.00;102430.88;5052556;28;20064;-56
2022/10/18 05:08:34;;;;;;;21.30;12.23;;;;;;;8.64;100.00;102449.28;5052280;28;20032;-60
2022/10/18 05:11:00;;;;;;;31.35;10.95;;;;;;;8.88;100.00;102504.41;5047632;28;20033;-60
2022/10/18 05:13:25;;;;;;;24.73;13.60;;;;;;;8.86;100.00;102509.69;5047268;28;20048;-56
2022/10/18 05:15:51;;;;;;;23.33;12.60;;;;;;;8.44;100.00;102449.22;5049967;28;20036;-58
2022/10/18 05:18:16;;;;;;;22.40;13.13;;;;;;;8.84;100.00;102521.06;5048553;28;20550;-59
2022/10/18 05:20:42;;;;;;;27.50;14.35;;;;;;;8.56;100.00;102467.63;5057852;28;20060;-54
2022/10/18 05:23:10;;;;;;;26.77;14.10;;;;;;;8.44;100.00;102431.75;5039892;28;20438;-56
2022/10/18 05:25:39;;;;;;;31.42;12.88;;;;;;;8.82;100.00;102510.53;5049730;28;20060;-56
2022/10/18 05:28:05;;;;;;;30.70;13.63;;;;;;;8.70;100.00;102483.41;5051927;28;20377;-56
2022/10/18 05:30:30;;;;;;;24.40;13.35;;;;;;;8.65;100.00;102483.38;5050688;28;20041;-52
2022/10/18 05:32:56;;;;;;;25.63;13.38;;;;;;;8.10;100.00;102403.66;5042037;28;20044;-57
2022/10/18 05:35:21;;;;;;;27.08;13.55;;;;;;;8.69;100.00;102513.16;5049620;28;20044;-55
2022/10/18 05:37:46;;;;;;;25.38;14.88;;;;;;;8.21;100.00;102427.28;5049407;28;20406;-58
2022/10/18 05:40:12;;;;;;;26.35;13.15;;;;;;;8.67;100.00;102507.03;5047514;28;20404;-52
2022/10/18 05:42:37;;;;;;;22.05;13.30;;;;;;;8.15;100.00;102433.38;5050283;28;20145;-60
2022/10/18 05:45:03;;;;;;;27.58;13.65;;;;;;;8.61;100.00;102517.53;5057079;28;20051;-56
2022/10/18 05:47:28;;;;;;;31.10;13.20;;;;;;;8.29;100.00;102472.81;5041686;28;20040;-54
2022/10/18 05:49:53;;;;;;;27.40;13.95;;;;;;;8.54;100.00;102519.25;5046993;28;20045;-57
2022/10/18 05:52:19;;;;;;;34.03;13.57;;;;;;;8.20;100.00;102465.75;5051694;28;20057;-55
2022/10/18 05:54:44;;;;;;;32.90;13.48;;;;;;;8.45;100.00;102514.84;5050575;28;20037;-53
2022/10/18 05:57:09;;;;;;;31.48;13.43;;;;;;;8.16;100.00;102481.47;5051585;28;20033;-56
2022/10/18 05:59:35;;;;;;;28.15;12.95;;;;;;;8.42;100.00;102537.56;5051509;28;20071;-57
2022/10/18 06:02:00;;;;;;;36.67;14.45;;;;;;;8.40;100.00;102562.94;5052351;28;20041;-54
2022/10/18 06:04:25;;;;;;;28.60;14.23;;;;;;;8.38;100.00;102551.53;5050616;28;20043;-55
2022/10/18 06:06:51;;;;;;;27.33;14.32;;;;;;;8.04;100.00;102478.81;5051697;28;20120;-57
2022/10/18 06:09:16;;;;;;;39.15;13.95;;;;;;;8.27;100.00;102526.97;5051915;28;20039;-54
2022/10/18 06:11:41;;;;;;;31.25;13.88;;;;;;;8.28;100.00;102541.91;5051981;28;20039;-54
2022/10/18 06:14:08;;;;;;;30.05;13.98;;;;;;;8.00;100.00;102498.03;5051797;28;20041;-58
2022/10/18 06:16:33;;;;;;;39.83;14.75;;;;;;;7.95;100.00;102503.25;5050782;28;20025;-56
2022/10/18 06:18:58;;;;;;;32.30;14.23;;;;;;;8.32;100.00;102572.50;5053309;28;20068;-56
2022/10/18 06:21:24;;;;;;;29.13;13.82;;;;;;;8.04;100.00;102510.28;5055748;28;20057;-56
2022/10/18 06:23:55;;;;;;;33.03;13.85;;;;;;;8.01;100.00;102491.91;5054679;28;20036;-58
2022/10/18 06:26:21;;;;;;;30.83;13.40;;;;;;;8.28;100.00;102549.78;5054655;28;20430;-58
2022/10/18 06:28:46;;;;;;;31.90;13.48;;;;;;;8.37;100.00;102574.31;5055294;28;20057;-56
2022/10/18 06:31:12;;;;;;;32.72;14.35;;;;;;;8.13;100.00;102539.16;5055810;28;20484;-54
2022/10/18 06:33:38;;;;;;;27.80;13.30;;;;;;;8.43;100.00;102586.56;5054443;28;20472;-51
2022/10/18 06:36:06;;;;;;;30.98;14.07;;;;;;;8.06;100.00;102516.41;5055444;28;20044;-59
2022/10/18 06:38:32;;;;;;;27.85;12.90;;;;;;;8.43;100.00;102589.19;5055524;28;20079;-59
2022/10/18 06:40:58;;;;;;;24.77;12.98;;;;;;;8.08;100.00;102519.91;5037595;28;20041;-56
2022/10/18 06:43:24;;;;;;;28.38;13.15;;;;;;;8.45;100.00;102601.44;5055392;28;20086;-57
2022/10/18 06:45:49;;;;;;;30.92;13.80;;;;;;;8.10;100.00;102537.41;5055628;28;20032;-53
2022/10/18 06:48:16;;;;;;;35.25;13.73;;;;;;;8.06;100.00;102519.91;5055562;28;20078;-55
2022/10/18 06:50:41;;;;;;;31.52;16.95;;;;;;;8.52;100.00;102594.50;5053882;28;20041;-57
2022/10/18 06:53:07;;;;;;;36.35;16.90;;;;;;;8.51;100.00;102582.22;5055361;28;20099;-55
2022/10/18 06:55:33;;;;;;;33.65;14.93;;;;;;;8.57;100.00;102602.38;5055319;28;20033;-54
2022/10/18 06:57:59;;;;;;;29.88;14.23;;;;;;;8.48;100.00;102579.59;5055092;28;20120;-60
2022/10/18 07:00:24;;;;;;;35.45;14.48;;;;;;;8.68;100.00;102611.16;5070687;28;20033;-57
2022/10/18 07:02:49;;;;;;;27.77;11.85;;;;;;;8.79;100.00;102598.94;5053823;28;20033;-60
2022/10/18 07:05:15;;;;;;;31.38;12.43;;;;;;;8.87;100.00;102597.22;5055133;28;20033;-58
2022/10/18 07:07:40;;;;;;;25.88;12.45;;;;;;;8.59;100.00;102542.88;5055045;28;20029;-59
2022/10/18 07:10:06;;;;;;;25.15;12.45;;;;;;;8.62;100.00;102532.38;5053963;28;20037;-58
2022/10/18 07:12:32;;;;;;;25.27;10.85;;;;;;;8.97;100.00;102606.84;5070195;28;20033;-56
2022/10/18 07:14:57;;;;;;;24.13;11.65;;;;;;;8.71;100.00;102556.91;5055149;28;20492;-59
2022/10/18 07:17:22;;;;;;;21.88;11.35;;;;;;;9.00;100.00;102613.00;5054626;28;20044;-59
2022/10/18 07:19:48;;;;;;;18.92;11.38;;;;;;;8.67;100.00;102555.13;5054534;28;20428;-53
2022/10/18 07:22:13;;;;;;;25.77;12.82;;;;;;;9.04;100.00;102624.41;5054693;28;20416;-56
2022/10/18 07:24:39;;;;;;;20.83;11.02;;;;;;;9.09;100.00;102632.28;5054517;28;20112;-57
2022/10/18 07:27:04;;;;;;;20.05;11.45;;;;;;;9.05;100.00;102611.25;5054510;28;20029;-59
2022/10/18 07:29:30;;;;;;;19.08;11.20;;;;;;;8.93;100.00;102592.84;5053919;28;20056;-54
2022/10/18 07:31:55;;;;;;;16.58;12.25;;;;;;;9.25;100.00;102631.44;5053930;28;20033;-54
2022/10/18 07:34:21;;;;;;;28.20;12.25;;;;;;;9.29;100.00;102627.94;5054471;28;20033;-60
2022/10/18 07:36:46;;;;;;;20.73;11.65;;;;;;;9.36;100.00;102633.22;5054235;28;20037;-58
2022/10/18 07:39:11;;;;;;;21.38;12.95;;;;;;;9.43;100.00;102650.72;5054451;28;20124;-57
2022/10/18 07:41:37;;;;;;;20.95;11.13;;;;;;;9.56;100.00;102647.25;5054350;28;20068;-56
2022/10/18 07:44:04;;;;;;;18.48;10.70;;;;;;;9.52;100.00;102607.78;5054265;28;20035;-58
2022/10/18 07:46:29;;;;;;;25.58;11.35;;;;;;;9.53;100.00;102581.53;5054357;28;20047;-55
2022/10/18 07:48:55;;;;;;;24.85;13.13;;;;;;;9.70;100.00;102601.66;5054225;28;20033;-60
2022/10/18 07:51:20;;;;;;;26.88;15.07;;;;;;;9.70;100.00;102594.66;5054225;28;20041;-55
2022/10/18 07:53:46;;;;;;;20.75;12.38;;;;;;;10.23;100.00;102663.00;5052776;28;20289;-59
2022/10/18 07:56:19;;;;;;;25.52;13.25;;;;;;;10.30;100.00;102669.13;5069361;28;20048;-52
2022/10/18 07:58:46;;;;;;;26.17;13.55;;;;;;;10.30;100.00;102659.47;5053894;28;20033;-56
2022/10/18 08:01:12;;;;;;;23.48;12.13;;;;;;;10.44;100.00;102675.25;5054179;28;20298;-54
2022/10/18 08:03:37;;;;;;;24.58;12.65;;;;;;;10.41;100.00;102651.53;5052774;28;20119;-54
2022/10/18 08:06:04;;;;;;;23.92;11.88;;;;;;;10.49;100.00;102652.41;5052743;28;20121;-56
2022/10/18 08:08:30;;;;;;;21.73;10.57;;;;;;;10.68;100.00;102668.13;5053877;28;20025;-57
2022/10/18 08:11:01;;;;;;;14.70;10.50;;;;;;;10.57;100.00;102622.53;5053716;28;20064;-56
2022/10/18 08:13:26;;;;;;;;;;;;;;;10.99;100.00;102663.59;5054139;28;20064;-56
2022/10/18 08:15:59;;;;;;;23.70;11.93;;;;;;;10.78;100.00;102608.38;5053531;28;19960;-59
2022/10/18 08:18:24;;;;;;;14.82;8.88;;;;;;;11.21;100.00;102661.69;5052369;28;20283;-58
2022/10/18 08:20:49;;;;;;;19.30;9.05;;;;;;;11.32;100.00;102666.03;5053862;28;20037;-58
2022/10/18 08:23:14;;;;;;;22.33;10.25;;;;;;;11.37;100.00;102638.75;5053081;28;20040;-57
2022/10/18 08:25:40;;;;;;;21.13;8.90;;;;;;;11.19;100.00;102601.09;5052572;28;20036;-57
2022/10/18 08:28:05;;;;;;;22.23;8.85;;;;;;;11.33;100.00;102603.63;5053111;28;20060;-60
2022/10/18 08:30:31;;;;;;;20.40;9.65;;;;;;;11.72;100.00;102661.38;5053662;28;20447;-56
2022/10/18 08:32:56;;;;;;;13.50;7.68;;;;;;;11.82;100.00;102665.69;5053548;28;20388;-56
2022/10/18 08:35:21;;;;;;;16.75;7.78;;;;;;;11.91;100.00;102656.81;5053580;28;20480;-55
2022/10/18 08:37:47;;;;;;;18.55;8.32;;;;;;;11.83;100.00;102626.97;5051992;28;20127;-58
2022/10/18 08:40:13;;;;;;;18.45;8.00;;;;;;;12.23;100.00;102678.50;5052042;28;20119;-58
2022/10/18 08:43:03;;;;;;;16.10;4.53;;;;;;;12.67;100.00;102685.03;5051798;28;20033;-56
2022/10/18 08:45:29;;;;;;;15.63;5.10;;;;;;;13.03;100.00;102673.16;5053243;28;20039;-55
2022/10/18 08:47:56;;;;;;;17.38;4.30;;;;;;;13.13;100.00;102622.81;5053025;28;20131;-56
2022/10/18 08:50:30;;;;;;;16.50;4.13;;;;;;;13.54;100.00;102609.78;5051839;28;20076;-52
2022/10/18 08:53:05;;;;;;;10.40;3.83;;;;;;;14.32;100.00;102675.53;5051930;28;20499;-54
2022/10/18 08:55:37;;;;;;;12.25;3.15;;;;;;;14.51;100.00;102630.97;5051818;28;20469;-55
2022/10/18 08:58:17;;;;;;;14.93;4.28;;;;;;;14.97;100.00;102668.03;5051977;28;20029;-58
2022/10/18 09:01:08;;;;;;;8.82;2.38;;;;;;;15.33;100.00;102639.78;5051704;28;20037;-57
2022/10/18 09:03:58;;;;;;;11.57;2.72;;;;;;;16.20;100.00;102657.94;5031534;28;20040;-54
2022/10/18 09:06:34;;;;;;;8.38;2.30;;;;;;;16.79;100.00;102640.31;5053017;28;20037;-57
2022/10/18 09:09:07;;;;;;;6.88;1.98;;;;;;;17.92;100.00;102638.50;5052798;28;20033;-57
2022/10/18 09:11:45;;;;;;;7.18;2.05;;;;;;;19.18;100.00;102680.03;5053058;28;20037;-55
2022/10/18 09:14:23;;;;;;;7.90;1.80;;;;;;;20.37;100.00;102733.03;5052909;28;20045;-56
2022/10/18 09:16:54;;;;;;;5.65;1.92;;;;;;;21.23;100.00;102788.03;5034897;28;20021;-59
2022/10/18 09:19:31;;;;;;;7.22;1.88;;;;;;;21.58;100.00;102790.88;5051092;28;20510;-56
2022/10/18 09:22:11;;;;;;;4.78;1.48;;;;;;;21.72;100.00;102759.78;5052643;28;20172;-58
2022/10/18 09:24:45;;;;;;;6.68;1.70;;;;;;;22.37;100.00;102791.41;5051501;28;20436;-59
2022/10/18 09:27:15;;;;;;;4.20;1.20;;;;;;;22.64;100.00;102790.94;5051278;28;20115;-55
2022/10/18 09:30:05;;;;;;;4.22;1.45;;;;;;;23.32;100.00;102822.22;5052378;28;20041;-59
2022/10/18 09:32:59;;;;;;;8.98;2.47;;;;;;;23.59;100.00;102825.19;5052694;28;20043;-54
2022/10/18 09:35:51;;;;;;;5.53;1.45;;;;;;;23.65;100.00;102792.59;5052455;28;20430;-52
2022/10/18 09:38:18;;;;;;;4.07;1.38;;;;;;;24.34;100.00;102830.78;5051859;28;20048;-56
2022/10/18 09:40:53;;;;;;;3.13;1.38;;;;;;;23.85;100.00;102821.91;5051319;28;20098;-57
2022/10/18 09:43:24;;;;;;;5.45;1.45;;;;;;;23.69;100.00;102845.25;5052441;28;20028;-57
2022/10/18 09:45:52;;;;;;;4.72;1.60;;;;;;;23.41;100.00;102798.41;5051117;28;20038;-53
2022/10/18 09:48:27;;;;;;;6.45;1.35;;;;;;;23.05;100.00;102805.75;5051035;28;20037;-56
2022/10/18 09:51:11;;;;;;;6.22;1.30;;;;;;;23.44;100.00;102853.78;5050794;28;20412;-57
2022/10/18 09:54:13;;;;;;;7.70;1.63;;;;;;;23.60;100.00;102849.34;5051773;28;20260;-58
2022/10/18 09:57:15;;;;;;;7.63;1.65;;;;;;;22.48;100.00;102849.88;5051230;28;20040;-55
2022/10/18 09:59:42;;;;;;;6.85;1.55;;;;;;;21.81;100.00;102849.59;5037668;28;20041;-58
2022/10/18 10:02:13;;;;;;;7.55;1.73;;;;;;;21.20;100.00;102851.59;5050868;28;20057;-56
2022/10/18 10:04:38;;;;;;;4.95;1.50;;;;;;;20.50;100.00;102845.72;5051073;28;20037;-53
2022/10/18 10:07:26;;;;;;;8.18;2.30;;;;;;;20.19;100.00;102849.66;5050860;28;20033;-59
2022/10/18 10:10:12;;;;;;;6.75;1.52;;;;;;;20.26;100.00;102844.94;5051380;28;20041;-51
2022/10/18 10:12:38;;;;;;;4.82;1.60;;;;;;;19.87;100.00;102846.53;5040445;28;20408;-53
2022/10/18 10:15:21;;;;;;;4.95;1.48;;;;;;;19.27;100.00;102839.00;5050649;28;20043;-55
2022/10/18 10:18:08;;;;;;;4.90;1.42;;;;;;;19.06;100.00;102838.84;5051739;28;20037;-54
2022/10/18 10:20:36;;;;;;;6.25;1.45;;;;;;;19.20;100.00;102840.16;5050674;28;20048;-50
2022/10/18 10:23:08;;;;;;;4.32;1.60;;;;;;;19.40;100.00;102840.31;5050845;28;20366;-55
2022/10/18 10:25:36;;;;;;;6.03;1.63;;;;;;;19.74;100.00;102808.72;5050716;28;20021;-56
2022/10/18 10:28:05;;;;;;;7.30;1.63;;;;;;;20.25;100.00;102805.78;5033955;28;20045;-53
2022/10/18 10:30:32;;;;;;;5.72;1.42;;;;;;;21.27;100.00;102796.81;5050535;28;20036;-56
2022/10/18 10:32:58;;;;;;;6.30;2.22;;;;;;;22.19;100.00;102805.72;5050754;28;20055;-55
2022/10/18 10:35:34;;;;;;;4.38;2.03;;;;;;;23.36;100.00;102853.31;5050770;28;20377;-55
2022/10/18 10:37:59;;;;;;;8.50;1.60;;;;;;;24.05;100.00;102876.31;5051812;28;20079;-58
2022/10/18 10:40:26;;;;;;;4.93;1.30;;;;;;;23.93;100.00;102830.44;5052126;28;20068;-56
2022/10/18 10:43:02;;;;;;;6.57;1.40;;;;;;;24.43;100.00;102825.69;5051706;28;20123;-54
2022/10/18 10:45:31;;;;;;;3.05;1.20;;;;;;;25.61;100.00;102888.50;5052029;28;20031;-59
2022/10/18 10:48:06;;;;;;;6.28;1.80;;;;;;;26.07;100.00;102889.09;5050828;28;20028;-58
2022/10/18 10:50:46;;;;;;;4.35;1.10;;;;;;;26.14;100.00;102873.38;5033767;28;20365;-52
2022/10/18 10:53:38;;;;;;;8.20;1.53;;;;;;;25.72;100.00;102883.28;5050513;28;20025;-56
2022/10/18 10:56:05;;;;;;;5.70;1.70;;;;;;;25.31;100.00;102893.06;5050522;28;20397;-51
2022/10/18 10:58:37;;;;;;;7.10;1.30;;;;;;;25.65;100.00;102894.56;5051727;28;20068;-60
2022/10/18 11:01:25;;;;;;;15.93;2.28;;;;;;;25.98;98.77;102894.22;5051414;28;20029;-54
2022/10/18 11:03:52;;;;;;;4.65;1.38;;;;;;;26.01;100.00;102902.97;5050220;28;20037;-53
2022/10/18 11:06:26;;;;;;;4.93;1.55;;;;;;;26.27;98.65;102899.47;5054918;28;20033;-56
2022/10/18 11:08:52;;;;;;;5.85;0.93;;;;;;;25.92;100.00;102884.69;5055208;28;20396;-56
2022/10/18 11:11:26;;;;;;;6.57;1.30;;;;;;;25.98;97.90;102851.03;5055014;28;20025;-54
2022/10/18 11:14:01;;;;;;;4.30;1.27;;;;;;;26.59;92.63;102897.31;5053784;28;20020;-47
2022/10/18 11:16:35;;;;;;;5.63;1.67;;;;;;;25.96;90.66;102864.66;5053532;28;20033;-53
2022/10/18 11:19:10;;;;;;;5.60;1.30;;;;;;;26.83;91.05;102886.72;5053747;28;20037;-54